createdAt,value
2019-01-29T00:01:32.704Z,1.90
2019-01-29T00:04:04.157Z,1.80
2019-01-29T00:06:36.586Z,1.90
2019-01-29T00:09:09.574Z,1.90
2019-01-29T00:11:41.026Z,1.80
2019-01-29T00:14:13.467Z,1.80
2019-01-29T00:16:44.959Z,1.80
2019-01-29T00:19:16.311Z,1.80
2019-01-29T00:21:47.607Z,1.80
2019-01-29T00:24:19.341Z,1.90
2019-01-29T00:26:50.752Z,1.90
2019-01-29T00:29:22.252Z,1.90
2019-01-29T00:31:53.592Z,1.90
2019-01-29T00:34:25.018Z,1.90
2019-01-29T00:36:56.442Z,1.90
2019-01-29T00:39:27.786Z,1.90
2019-01-29T00:41:59.154Z,1.90
2019-01-29T00:44:30.487Z,1.80
2019-01-29T00:47:03.048Z,1.80
2019-01-29T00:49:34.284Z,1.80
2019-01-29T00:52:06.013Z,1.80
2019-01-29T00:54:37.391Z,1.80
2019-01-29T00:57:08.974Z,1.70
2019-01-29T00:59:40.420Z,1.80
2019-01-29T01:02:11.957Z,1.70
2019-01-29T01:04:43.416Z,1.80
2019-01-29T01:07:14.978Z,1.70
2019-01-29T01:09:46.445Z,1.70
2019-01-29T01:12:17.742Z,1.70
2019-01-29T01:14:49.221Z,1.70
2019-01-29T01:17:20.698Z,1.70
2019-01-29T01:19:52.317Z,1.60
2019-01-29T01:22:23.742Z,1.60
2019-01-29T01:24:55.049Z,1.60
2019-01-29T01:27:26.820Z,1.60
2019-01-29T01:29:58.133Z,1.50
2019-01-29T01:32:29.553Z,1.50
2019-01-29T01:35:01.023Z,1.50
2019-01-29T01:37:32.521Z,1.50
2019-01-29T01:40:06.065Z,1.50
2019-01-29T01:42:37.583Z,1.50
2019-01-29T01:45:12.714Z,1.50
2019-01-29T01:47:45.212Z,1.50
2019-01-29T01:50:16.780Z,1.50
2019-01-29T01:52:48.299Z,1.50
2019-01-29T01:55:19.906Z,1.50
2019-01-29T01:57:51.281Z,1.50
2019-01-29T02:00:23.575Z,1.50
2019-01-29T02:02:54.875Z,1.60
2019-01-29T02:05:26.411Z,1.60
2019-01-29T02:07:58.007Z,1.50
2019-01-29T02:10:30.975Z,1.50
2019-01-29T02:13:02.518Z,1.50
2019-01-29T02:15:33.845Z,1.50
2019-01-29T02:18:05.300Z,1.50
2019-01-29T02:20:37.736Z,1.50
2019-01-29T02:23:09.186Z,1.50
2019-01-29T02:25:40.678Z,1.40
2019-01-29T02:28:12.148Z,1.40
2019-01-29T02:30:43.584Z,1.40
2019-01-29T02:33:15.235Z,1.40
2019-01-29T02:35:46.739Z,1.40
2019-01-29T02:38:18.140Z,1.40
2019-01-29T02:40:49.417Z,1.30
2019-01-29T02:43:20.744Z,1.30
2019-01-29T02:45:52.162Z,1.30
2019-01-29T02:48:23.553Z,1.30
2019-01-29T02:50:55.024Z,1.30
2019-01-29T02:53:26.331Z,1.30
2019-01-29T02:55:58.558Z,1.30
2019-01-29T02:58:29.942Z,1.30
2019-01-29T03:01:01.504Z,1.30
2019-01-29T03:03:33.448Z,1.20
2019-01-29T03:06:07.098Z,1.20
2019-01-29T03:08:39.753Z,1.20
2019-01-29T03:11:11.254Z,1.20
2019-01-29T03:13:42.768Z,1.20
2019-01-29T03:16:14.919Z,1.20
2019-01-29T03:18:46.509Z,1.30
2019-01-29T03:21:18.690Z,1.30
2019-01-29T03:23:50.265Z,1.30
2019-01-29T03:26:21.894Z,1.30
2019-01-29T03:28:55.482Z,1.30
2019-01-29T03:31:30.496Z,1.30
2019-01-29T03:34:02.389Z,1.20
2019-01-29T03:36:35.051Z,1.20
2019-01-29T03:39:09.876Z,1.20
2019-01-29T03:41:41.342Z,1.20
2019-01-29T03:44:12.876Z,1.10
2019-01-29T03:46:44.334Z,1.10
2019-01-29T03:49:15.840Z,1.00
2019-01-29T03:51:51.669Z,1.00
2019-01-29T03:54:23.048Z,1.00
2019-01-29T03:56:55.642Z,1.00
2019-01-29T03:59:27.143Z,0.90
2019-01-29T04:01:58.526Z,0.90
2019-01-29T04:04:30.137Z,0.90
2019-01-29T04:07:01.531Z,0.90
2019-01-29T04:09:33.265Z,0.80
2019-01-29T04:12:04.889Z,0.80
2019-01-29T04:14:36.571Z,0.80
2019-01-29T04:17:08.200Z,0.80
2019-01-29T04:19:39.596Z,0.80
2019-01-29T04:22:11.050Z,0.80
2019-01-29T04:24:42.404Z,0.80
2019-01-29T04:27:13.715Z,0.70
2019-01-29T04:29:45.198Z,0.70
2019-01-29T04:32:16.650Z,0.70
2019-01-29T04:34:49.929Z,0.70
2019-01-29T04:37:21.452Z,0.70
2019-01-29T04:39:54.838Z,0.70
2019-01-29T04:42:26.462Z,0.70
2019-01-29T04:44:59.297Z,0.70
2019-01-29T04:47:30.989Z,0.70
2019-01-29T04:50:02.769Z,0.70
2019-01-29T04:52:34.393Z,0.70
2019-01-29T04:55:09.884Z,0.70
2019-01-29T04:57:43.339Z,0.70
2019-01-29T05:00:22.266Z,0.70
2019-01-29T05:03:02.715Z,0.80
2019-01-29T05:05:36.127Z,0.80
2019-01-29T05:08:13.383Z,0.80
2019-01-29T05:11:15.723Z,0.90
2019-01-29T05:13:46.943Z,0.90
2019-01-29T05:16:18.232Z,0.90
2019-01-29T05:18:49.445Z,0.90
2019-01-29T05:21:20.871Z,0.90
2019-01-29T05:23:53.040Z,0.90
2019-01-29T05:26:24.320Z,0.90
2019-01-29T05:28:57.558Z,0.90
2019-01-29T05:31:32.100Z,0.90
2019-01-29T05:34:03.452Z,0.90
2019-01-29T05:36:34.929Z,0.90
2019-01-29T05:39:08.991Z,0.90
2019-01-29T05:41:40.446Z,0.90
2019-01-29T05:44:15.107Z,0.90
2019-01-29T05:46:46.386Z,0.80
2019-01-29T05:49:17.672Z,0.80
2019-01-29T05:51:48.962Z,0.90
2019-01-29T05:54:20.240Z,0.90
2019-01-29T05:56:59.498Z,0.90
2019-01-29T05:59:30.777Z,0.90
2019-01-29T06:02:02.128Z,0.90
2019-01-29T06:04:38.310Z,0.90
2019-01-29T06:07:09.667Z,0.90
2019-01-29T06:09:40.900Z,0.90
2019-01-29T06:12:12.366Z,0.90
2019-01-29T06:14:43.775Z,0.90
2019-01-29T06:17:15.061Z,0.90
2019-01-29T06:19:46.408Z,0.90
2019-01-29T06:22:17.689Z,1.00
2019-01-29T06:24:48.911Z,0.90
2019-01-29T06:27:20.165Z,0.90
2019-01-29T06:29:51.383Z,0.90
2019-01-29T06:32:22.665Z,0.90
2019-01-29T06:34:53.963Z,0.90
2019-01-29T06:37:25.215Z,0.90
2019-01-29T06:39:56.442Z,0.90
2019-01-29T06:42:27.782Z,0.90
2019-01-29T06:44:59.064Z,0.90
2019-01-29T06:47:30.354Z,0.90
2019-01-29T06:50:01.575Z,0.90
2019-01-29T06:52:32.835Z,0.90
2019-01-29T06:55:08.280Z,0.90
2019-01-29T06:57:40.283Z,0.90
2019-01-29T07:00:22.634Z,0.90
2019-01-29T07:02:54.179Z,0.90
2019-01-29T07:05:25.758Z,0.90
2019-01-29T07:07:57.074Z,0.80
2019-01-29T07:10:29.261Z,0.80
2019-01-29T07:13:01.848Z,0.80
2019-01-29T07:15:50.610Z,0.80
2019-01-29T07:18:41.997Z,0.80
2019-01-29T07:21:13.469Z,0.80
2019-01-29T07:23:44.903Z,0.80
2019-01-29T07:26:16.256Z,0.80
2019-01-29T07:28:47.559Z,0.80
2019-01-29T07:31:18.848Z,0.80
2019-01-29T07:33:50.208Z,0.80
2019-01-29T07:36:21.576Z,0.90
2019-01-29T07:38:52.910Z,0.90
2019-01-29T07:41:24.198Z,1.00
2019-01-29T07:43:55.426Z,1.00
2019-01-29T07:46:27.014Z,1.00
2019-01-29T07:48:59.884Z,1.10
2019-01-29T07:51:31.229Z,1.10
2019-01-29T07:54:02.523Z,1.10
2019-01-29T07:56:33.788Z,1.10
2019-01-29T07:59:05.147Z,1.10
2019-01-29T08:01:36.499Z,1.10
2019-01-29T08:04:08.427Z,1.10
2019-01-29T08:06:39.914Z,1.20
2019-01-29T08:09:11.684Z,1.20
2019-01-29T08:11:42.962Z,1.20
2019-01-29T08:14:14.313Z,1.30
2019-01-29T08:16:48.677Z,1.40
2019-01-29T08:19:20.021Z,1.40
2019-01-29T08:21:51.318Z,1.30
2019-01-29T08:24:22.598Z,1.30
2019-01-29T08:26:57.624Z,1.30
2019-01-29T08:29:26.924Z,1.30
2019-01-29T08:31:58.273Z,1.30
2019-01-29T08:34:29.548Z,1.30
2019-01-29T08:37:00.766Z,1.30
2019-01-29T08:39:32.103Z,1.40
2019-01-29T08:42:03.470Z,1.40
2019-01-29T08:44:34.757Z,1.40
2019-01-29T08:47:06.323Z,1.40
2019-01-29T08:49:37.583Z,1.50
2019-01-29T08:52:08.873Z,1.50
2019-01-29T08:54:40.160Z,1.50
2019-01-29T08:57:11.516Z,1.60
2019-01-29T08:59:42.780Z,1.70
2019-01-29T09:02:14.154Z,1.70
2019-01-29T09:04:45.505Z,1.70
2019-01-29T09:07:16.799Z,1.80
2019-01-29T09:09:48.091Z,1.80
2019-01-29T09:12:19.464Z,1.80
2019-01-29T09:14:50.741Z,1.90
2019-01-29T09:17:22.047Z,1.90
2019-01-29T09:19:53.451Z,1.90
2019-01-29T09:22:24.738Z,2.00
2019-01-29T09:24:56.221Z,2.00
2019-01-29T09:27:27.439Z,2.00
2019-01-29T09:29:58.698Z,2.00
2019-01-29T09:32:29.926Z,2.00
2019-01-29T09:35:01.279Z,2.10
2019-01-29T09:37:32.767Z,2.10
2019-01-29T09:40:06.050Z,2.10
2019-01-29T09:42:37.432Z,2.20
2019-01-29T09:45:12.854Z,2.20
2019-01-29T09:47:44.274Z,2.20
2019-01-29T09:50:19.822Z,2.30
2019-01-29T09:52:52.273Z,2.30
2019-01-29T09:55:29.386Z,2.40
2019-01-29T09:57:58.040Z,2.40
2019-01-29T10:00:39.057Z,2.40
2019-01-29T10:03:10.353Z,2.50
2019-01-29T10:05:41.859Z,2.60
2019-01-29T10:08:13.165Z,2.60
2019-01-29T10:10:44.516Z,2.70
2019-01-29T10:13:15.750Z,2.70
2019-01-29T10:15:47.038Z,2.80
2019-01-29T10:18:18.345Z,2.90
2019-01-29T10:20:49.758Z,3.00
2019-01-29T10:23:20.984Z,3.00
2019-01-29T10:25:52.321Z,3.10
2019-01-29T10:28:23.547Z,3.20
2019-01-29T10:30:54.958Z,3.20
2019-01-29T10:33:26.275Z,3.20
2019-01-29T10:35:57.687Z,3.30
2019-01-29T10:38:28.980Z,3.30
2019-01-29T10:41:00.476Z,3.30
2019-01-29T10:43:31.840Z,3.40
2019-01-29T10:46:03.142Z,3.40
2019-01-29T10:48:34.375Z,3.50
2019-01-29T10:51:05.876Z,3.50
2019-01-29T10:53:38.273Z,3.50
2019-01-29T10:56:09.661Z,3.40
2019-01-29T10:58:40.884Z,3.40
2019-01-29T11:01:12.300Z,3.30
2019-01-29T11:03:43.661Z,3.30
2019-01-29T11:06:15.073Z,3.30
2019-01-29T11:08:46.504Z,3.30
2019-01-29T11:11:17.856Z,3.30
2019-01-29T11:13:49.147Z,3.40
2019-01-29T11:16:20.494Z,3.40
2019-01-29T11:18:51.919Z,3.40
2019-01-29T11:21:23.472Z,3.40
2019-01-29T11:23:54.885Z,3.50
2019-01-29T11:26:27.403Z,3.50
2019-01-29T11:28:58.763Z,3.50
2019-01-29T11:31:30.254Z,3.60
2019-01-29T11:34:01.591Z,3.60
2019-01-29T11:36:33.051Z,3.70
2019-01-29T11:39:07.444Z,3.70
2019-01-29T11:41:39.136Z,3.80
2019-01-29T11:44:10.514Z,3.90
2019-01-29T11:46:42.189Z,3.90
2019-01-29T11:49:13.612Z,4.00
2019-01-29T11:51:45.146Z,4.10
2019-01-29T11:54:16.445Z,4.20
2019-01-29T11:56:47.855Z,4.30
2019-01-29T11:59:19.110Z,4.30
2019-01-29T12:01:50.562Z,4.40
2019-01-29T12:04:21.954Z,4.50
2019-01-29T12:06:55.057Z,4.60
2019-01-29T12:09:26.328Z,4.70
2019-01-29T12:11:57.835Z,4.70
2019-01-29T12:14:29.242Z,4.80
2019-01-29T12:17:00.675Z,4.90
2019-01-29T12:19:32.303Z,4.90
2019-01-29T12:22:03.800Z,5.00
2019-01-29T12:24:35.210Z,5.00
2019-01-29T12:27:06.748Z,5.10
2019-01-29T12:29:38.064Z,5.10
2019-01-29T12:32:09.448Z,5.20
2019-01-29T12:34:40.854Z,5.40
2019-01-29T12:37:12.579Z,5.50
2019-01-29T12:39:43.926Z,5.60
2019-01-29T12:42:15.303Z,5.70
2019-01-29T12:44:46.583Z,5.70
2019-01-29T12:47:18.112Z,5.80
2019-01-29T12:49:49.585Z,5.70
2019-01-29T12:52:24.398Z,5.70
2019-01-29T12:54:55.686Z,5.60
2019-01-29T12:57:26.989Z,5.50
2019-01-29T12:59:58.265Z,5.40
2019-01-29T13:02:29.726Z,5.30
2019-01-29T13:05:01.008Z,5.20
2019-01-29T13:07:32.549Z,5.10
2019-01-29T13:10:05.676Z,5.10
2019-01-29T13:12:37.044Z,5.10
2019-01-29T13:15:13.107Z,5.00
2019-01-29T13:17:44.645Z,4.90
2019-01-29T13:20:16.022Z,4.90
2019-01-29T13:22:47.480Z,4.90
2019-01-29T13:25:21.037Z,4.80
2019-01-29T13:27:53.097Z,4.80
2019-01-29T13:30:30.918Z,4.80
2019-01-29T13:33:02.862Z,4.80
2019-01-29T13:35:37.457Z,4.90
2019-01-29T13:38:10.489Z,4.90
2019-01-29T13:40:42.182Z,4.80
2019-01-29T13:43:13.630Z,4.70
2019-01-29T13:45:45.081Z,4.70
2019-01-29T13:48:16.890Z,4.70
2019-01-29T13:50:51.828Z,4.70
2019-01-29T13:53:23.102Z,4.70
2019-01-29T13:55:54.947Z,4.70
2019-01-29T13:58:27.376Z,4.70
2019-01-29T14:01:01.819Z,4.70
2019-01-29T14:03:33.158Z,4.60
2019-01-29T14:06:06.046Z,4.60
2019-01-29T14:08:37.322Z,4.60
2019-01-29T14:11:10.086Z,4.60
2019-01-29T14:13:43.141Z,4.60
2019-01-29T14:16:14.501Z,4.60
2019-01-29T14:18:58.687Z,4.70
2019-01-29T14:21:30.024Z,4.60
2019-01-29T14:24:01.559Z,4.60
2019-01-29T14:26:32.981Z,4.60
2019-01-29T14:29:04.486Z,4.60
2019-01-29T14:31:35.823Z,4.60
2019-01-29T14:34:07.169Z,4.60
2019-01-29T14:36:38.526Z,4.50
2019-01-29T14:39:20.443Z,4.60
2019-01-29T14:41:51.726Z,4.50
2019-01-29T14:44:23.056Z,4.50
2019-01-29T14:46:54.266Z,4.60
2019-01-29T14:49:25.628Z,4.60
2019-01-29T14:51:56.831Z,4.60
2019-01-29T14:54:28.384Z,4.70
2019-01-29T14:56:59.934Z,4.80
2019-01-29T14:59:31.491Z,4.80
2019-01-29T15:02:03.146Z,4.90
2019-01-29T15:04:34.583Z,4.90
2019-01-29T15:07:06.078Z,4.80
2019-01-29T15:09:37.570Z,4.80
2019-01-29T15:12:09.191Z,4.70
2019-01-29T15:14:40.744Z,4.70
2019-01-29T15:17:13.785Z,4.60
2019-01-29T15:19:56.387Z,4.60
2019-01-29T15:22:27.857Z,4.50
2019-01-29T15:24:59.913Z,4.40
2019-01-29T15:27:31.511Z,4.30
2019-01-29T15:30:07.879Z,4.30
2019-01-29T15:32:39.454Z,4.20
2019-01-29T15:35:11.234Z,4.10
2019-01-29T15:37:42.728Z,4.10
2019-01-29T15:40:24.681Z,4.10
2019-01-29T15:42:56.319Z,4.10
2019-01-29T15:45:29.767Z,4.00
2019-01-29T15:48:01.079Z,3.90
2019-01-29T15:50:35.037Z,3.90
2019-01-29T15:53:07.624Z,3.90
2019-01-29T15:55:40.273Z,3.80
2019-01-29T15:58:11.824Z,3.80
2019-01-29T16:00:43.565Z,3.70
2019-01-29T16:03:14.991Z,3.60
2019-01-29T16:05:46.685Z,3.70
2019-01-29T16:08:18.223Z,3.60
2019-01-29T16:10:49.721Z,3.60
2019-01-29T16:13:21.250Z,3.60
2019-01-29T16:15:52.666Z,3.60
2019-01-29T16:18:24.043Z,3.60
2019-01-29T16:20:55.488Z,3.60
2019-01-29T16:23:27.022Z,3.70
2019-01-29T16:25:58.515Z,3.70
2019-01-29T16:28:30.024Z,3.60
2019-01-29T16:31:01.516Z,3.60
2019-01-29T16:33:34.448Z,3.50
2019-01-29T16:36:05.903Z,3.50
2019-01-29T16:38:37.349Z,3.50
2019-01-29T16:41:08.852Z,3.50
2019-01-29T16:43:41.397Z,3.60
2019-01-29T16:46:13.080Z,3.60
2019-01-29T16:48:44.520Z,3.50
2019-01-29T16:51:15.869Z,3.50
2019-01-29T16:53:47.355Z,3.50
2019-01-29T16:56:18.702Z,3.40
2019-01-29T16:58:50.164Z,3.40
2019-01-29T17:01:21.618Z,3.30
2019-01-29T17:03:53.035Z,3.20
2019-01-29T17:06:24.578Z,3.30
2019-01-29T17:08:55.931Z,3.30
2019-01-29T17:11:27.336Z,3.20
2019-01-29T17:13:58.906Z,3.20
2019-01-29T17:16:30.725Z,3.20
2019-01-29T17:19:02.192Z,3.20
2019-01-29T17:21:33.516Z,3.20
2019-01-29T17:24:05.121Z,3.10
2019-01-29T17:26:36.408Z,2.90
2019-01-29T17:29:07.953Z,2.80
2019-01-29T17:31:39.307Z,2.70
2019-01-29T17:34:10.716Z,2.60
2019-01-29T17:36:42.097Z,2.50
2019-01-29T17:39:13.512Z,2.50
2019-01-29T17:41:44.909Z,2.40
2019-01-29T17:44:16.386Z,2.40
2019-01-29T17:46:47.805Z,2.30
2019-01-29T17:49:19.057Z,2.30
2019-01-29T17:51:50.684Z,2.10
2019-01-29T17:54:22.207Z,2.10
2019-01-29T17:56:57.930Z,2.00
2019-01-29T17:59:29.003Z,1.90
2019-01-29T18:02:00.559Z,1.90
2019-01-29T18:04:31.987Z,1.80
2019-01-29T18:07:03.602Z,1.80
2019-01-29T18:09:35.068Z,1.80
2019-01-29T18:12:06.687Z,1.80
2019-01-29T18:14:38.141Z,1.70
2019-01-29T18:17:09.608Z,1.70
2019-01-29T18:19:41.141Z,1.60
2019-01-29T18:22:12.659Z,1.50
2019-01-29T18:24:44.082Z,1.40
2019-01-29T18:27:15.600Z,1.40
2019-01-29T18:29:47.008Z,1.30
2019-01-29T18:32:18.622Z,1.20
2019-01-29T18:34:50.181Z,1.20
2019-01-29T18:37:21.745Z,1.20
2019-01-29T18:39:53.224Z,1.10
2019-01-29T18:42:24.713Z,1.10
2019-01-29T18:44:56.143Z,1.00
2019-01-29T18:47:27.698Z,0.90
2019-01-29T18:49:59.064Z,1.00
2019-01-29T18:52:30.563Z,0.90
2019-01-29T18:55:02.067Z,0.90
2019-01-29T18:57:33.627Z,0.80
2019-01-29T19:00:11.034Z,0.80
2019-01-29T19:02:42.648Z,0.80
2019-01-29T19:05:15.841Z,0.70
2019-01-29T19:07:47.568Z,0.70
2019-01-29T19:10:21.461Z,0.60
2019-01-29T19:12:53.149Z,0.60
2019-01-29T19:15:27.325Z,0.60
2019-01-29T19:17:58.922Z,0.60
2019-01-29T19:20:31.293Z,0.50
2019-01-29T19:23:02.905Z,0.40
2019-01-29T19:25:46.442Z,0.40
2019-01-29T19:28:22.163Z,0.40
2019-01-29T19:30:51.795Z,0.30
2019-01-29T19:33:26.410Z,0.30
2019-01-29T19:35:59.613Z,0.30
2019-01-29T19:38:41.941Z,0.30
2019-01-29T19:41:14.422Z,0.20
2019-01-29T19:43:46.276Z,0.20
2019-01-29T19:46:18.011Z,0.20
2019-01-29T19:48:49.883Z,0.10
2019-01-29T19:51:21.726Z,0.10
2019-01-29T19:53:55.141Z,0.00
2019-01-29T19:56:26.866Z,0.00
2019-01-29T19:58:58.461Z,0.00
2019-01-29T20:01:30.027Z,-0.10
2019-01-29T20:04:01.837Z,-0.10
2019-01-29T20:06:33.578Z,-0.10
2019-01-29T20:09:11.978Z,-0.10
2019-01-29T20:11:46.750Z,-0.10
2019-01-29T20:14:18.273Z,-0.20
2019-01-29T20:16:49.691Z,-0.20
2019-01-29T20:19:21.349Z,-0.30
2019-01-29T20:21:52.953Z,-0.30
2019-01-29T20:24:24.532Z,-0.30
2019-01-29T20:26:56.480Z,-0.30
2019-01-29T20:29:28.258Z,-0.40
2019-01-29T20:32:00.148Z,-0.40
2019-01-29T20:34:31.670Z,-0.50
2019-01-29T20:37:04.250Z,-0.50
2019-01-29T20:39:35.859Z,-0.50
2019-01-29T20:42:07.788Z,-0.50
2019-01-29T20:44:39.293Z,-0.60
2019-01-29T20:47:10.810Z,-0.60
2019-01-29T20:49:42.301Z,-0.60
2019-01-29T20:52:13.805Z,-0.60
2019-01-29T20:54:45.395Z,-0.50
2019-01-29T20:57:16.770Z,-0.40
2019-01-29T20:59:48.437Z,-0.30
2019-01-29T21:02:19.857Z,-0.40
2019-01-29T21:04:51.345Z,-0.50
2019-01-29T21:07:23.865Z,-0.50
2019-01-29T21:09:55.398Z,-0.60
2019-01-29T21:12:26.831Z,-0.70
2019-01-29T21:14:58.174Z,-0.70
2019-01-29T21:17:29.576Z,-0.60
2019-01-29T21:20:00.925Z,-0.60
2019-01-29T21:22:32.514Z,-0.60
2019-01-29T21:25:08.671Z,-0.60
2019-01-29T21:27:40.090Z,-0.50
2019-01-29T21:30:33.899Z,-0.50
2019-01-29T21:33:05.913Z,-0.60
2019-01-29T21:35:39.071Z,-0.60
2019-01-29T21:38:10.719Z,-0.60
2019-01-29T21:40:42.323Z,-0.70
2019-01-29T21:43:13.728Z,-0.70
2019-01-29T21:45:45.218Z,-0.70
2019-01-29T21:48:16.699Z,-0.80
2019-01-29T21:50:48.289Z,-0.70
2019-01-29T21:53:19.726Z,-0.70
2019-01-29T21:55:51.218Z,-0.70
2019-01-29T21:58:22.793Z,-0.70
2019-01-29T22:00:55.459Z,-0.80
2019-01-29T22:03:26.779Z,-0.90
2019-01-29T22:05:58.209Z,-0.80
2019-01-29T22:08:29.763Z,-0.80
2019-01-29T22:11:01.355Z,-0.90
2019-01-29T22:13:32.692Z,-0.90
2019-01-29T22:16:04.097Z,-0.90
2019-01-29T22:18:35.494Z,-0.90
2019-01-29T22:21:07.004Z,-0.90
2019-01-29T22:23:38.378Z,-1.00
2019-01-29T22:26:10.868Z,-1.10
2019-01-29T22:28:42.186Z,-1.10
2019-01-29T22:31:13.603Z,-1.10
2019-01-29T22:33:44.970Z,-1.00
2019-01-29T22:36:16.468Z,-1.10
2019-01-29T22:38:48.747Z,-1.00
2019-01-29T22:41:20.117Z,-1.00
2019-01-29T22:43:51.506Z,-1.10
2019-01-29T22:46:22.880Z,-1.20
2019-01-29T22:48:54.308Z,-1.20
2019-01-29T22:51:25.703Z,-1.20
2019-01-29T22:53:59.511Z,-1.30
2019-01-29T22:56:30.380Z,-1.30
2019-01-29T22:59:01.732Z,-1.30
2019-01-29T23:01:36.062Z,-1.40
2019-01-29T23:04:08.595Z,-1.40
2019-01-29T23:06:47.838Z,-1.30
2019-01-29T23:09:19.184Z,-1.40
2019-01-29T23:11:50.795Z,-1.40
2019-01-29T23:14:22.227Z,-1.40
2019-01-29T23:16:53.754Z,-1.40
2019-01-29T23:19:25.279Z,-1.30
2019-01-29T23:21:56.889Z,-1.30
2019-01-29T23:24:28.320Z,-1.40
2019-01-29T23:27:01.346Z,-1.40
2019-01-29T23:29:37.663Z,-1.40
2019-01-29T23:32:06.194Z,-1.40
2019-01-29T23:34:37.542Z,-1.40
2019-01-29T23:37:08.891Z,-1.40
2019-01-29T23:39:40.335Z,-1.40
2019-01-29T23:42:11.973Z,-1.40
2019-01-29T23:44:43.356Z,-1.40
2019-01-29T23:47:14.817Z,-1.40
2019-01-29T23:49:46.162Z,-1.40
2019-01-29T23:52:17.615Z,-1.50
2019-01-29T23:54:48.914Z,-1.50
2019-01-29T23:57:20.328Z,-1.60
2019-01-29T23:59:53.722Z,-1.60
